sensor_id;sensor_type;location;lat;lon;timestamp;temperature;humidity
20376;DHT22;10347;51.828;6.466;2023-06-19T00:00:37;25.30;92.90
20376;DHT22;10347;51.828;6.466;2023-06-19T00:03:05;25.20;93.20
20376;DHT22;10347;51.828;6.466;2023-06-19T00:05:30;25.20;93.40
20376;DHT22;10347;51.828;6.466;2023-06-19T00:07:56;25.20;93.60
20376;DHT22;10347;51.828;6.466;2023-06-19T00:10:21;25.20;93.80
20376;DHT22;10347;51.828;6.466;2023-06-19T00:12:47;25.20;94.10
20376;DHT22;10347;51.828;6.466;2023-06-19T00:15:13;25.20;94.30
20376;DHT22;10347;51.828;6.466;2023-06-19T00:17:39;25.20;94.60
20376;DHT22;10347;51.828;6.466;2023-06-19T00:20:05;25.20;95.10
20376;DHT22;10347;51.828;6.466;2023-06-19T00:22:31;25.10;95.00
20376;DHT22;10347;51.828;6.466;2023-06-19T00:24:57;25.10;95.30
20376;DHT22;10347;51.828;6.466;2023-06-19T00:27:22;25.10;95.40
20376;DHT22;10347;51.828;6.466;2023-06-19T00:29:52;25.10;95.60
20376;DHT22;10347;51.828;6.466;2023-06-19T00:32:17;25.10;95.70
20376;DHT22;10347;51.828;6.466;2023-06-19T00:34:43;25.00;95.90
20376;DHT22;10347;51.828;6.466;2023-06-19T00:37:09;25.10;96.10
20376;DHT22;10347;51.828;6.466;2023-06-19T00:39:35;25.00;96.30
20376;DHT22;10347;51.828;6.466;2023-06-19T00:42:01;25.00;96.40
20376;DHT22;10347;51.828;6.466;2023-06-19T00:44:26;25.00;96.50
20376;DHT22;10347;51.828;6.466;2023-06-19T00:46:58;25.00;96.60
20376;DHT22;10347;51.828;6.466;2023-06-19T00:49:25;25.00;96.70
20376;DHT22;10347;51.828;6.466;2023-06-19T00:51:51;25.00;96.70
20376;DHT22;10347;51.828;6.466;2023-06-19T00:54:18;25.00;97.10
20376;DHT22;10347;51.828;6.466;2023-06-19T00:56:44;25.00;96.80
20376;DHT22;10347;51.828;6.466;2023-06-19T00:59:19;25.00;96.90
20376;DHT22;10347;51.828;6.466;2023-06-19T01:01:45;24.90;96.90
20376;DHT22;10347;51.828;6.466;2023-06-19T01:04:12;24.90;96.70
20376;DHT22;10347;51.828;6.466;2023-06-19T01:06:56;24.90;96.60
20376;DHT22;10347;51.828;6.466;2023-06-19T01:09:28;25.00;96.60
20376;DHT22;10347;51.828;6.466;2023-06-19T01:12:12;24.90;96.30
20376;DHT22;10347;51.828;6.466;2023-06-19T01:14:53;24.90;96.30
20376;DHT22;10347;51.828;6.466;2023-06-19T01:17:21;24.90;96.30
20376;DHT22;10347;51.828;6.466;2023-06-19T01:19:47;24.90;96.20
20376;DHT22;10347;51.828;6.466;2023-06-19T01:22:23;24.90;96.20
20376;DHT22;10347;51.828;6.466;2023-06-19T01:24:49;24.90;96.30
20376;DHT22;10347;51.828;6.466;2023-06-19T01:27:14;24.90;96.20
20376;DHT22;10347;51.828;6.466;2023-06-19T01:29:40;24.90;96.20
20376;DHT22;10347;51.828;6.466;2023-06-19T01:32:40;24.90;96.20
20376;DHT22;10347;51.828;6.466;2023-06-19T01:35:08;24.90;96.40
20376;DHT22;10347;51.828;6.466;2023-06-19T01:37:35;24.90;96.40
20376;DHT22;10347;51.828;6.466;2023-06-19T01:40:04;24.90;96.40
20376;DHT22;10347;51.828;6.466;2023-06-19T01:42:31;24.90;96.50
20376;DHT22;10347;51.828;6.466;2023-06-19T01:44:57;24.80;96.50
20376;DHT22;10347;51.828;6.466;2023-06-19T01:47:22;24.80;96.60
20376;DHT22;10347;51.828;6.466;2023-06-19T01:49:48;24.80;96.80
20376;DHT22;10347;51.828;6.466;2023-06-19T01:52:14;24.80;97.00
20376;DHT22;10347;51.828;6.466;2023-06-19T01:54:40;24.80;96.90
20376;DHT22;10347;51.828;6.466;2023-06-19T01:57:06;24.70;97.00
20376;DHT22;10347;51.828;6.466;2023-06-19T01:59:32;24.70;97.10
20376;DHT22;10347;51.828;6.466;2023-06-19T02:01:57;24.60;97.30
20376;DHT22;10347;51.828;6.466;2023-06-19T02:04:23;24.60;97.40
20376;DHT22;10347;51.828;6.466;2023-06-19T02:06:48;24.60;97.50
20376;DHT22;10347;51.828;6.466;2023-06-19T02:09:14;24.60;97.70
20376;DHT22;10347;51.828;6.466;2023-06-19T02:11:39;24.50;97.90
20376;DHT22;10347;51.828;6.466;2023-06-19T02:14:05;24.50;98.10
20376;DHT22;10347;51.828;6.466;2023-06-19T02:16:30;24.50;98.40
20376;DHT22;10347;51.828;6.466;2023-06-19T02:18:56;24.40;98.70
20376;DHT22;10347;51.828;6.466;2023-06-19T02:21:22;24.40;98.80
20376;DHT22;10347;51.828;6.466;2023-06-19T02:23:48;24.40;99.00
20376;DHT22;10347;51.828;6.466;2023-06-19T02:26:13;24.30;99.30
20376;DHT22;10347;51.828;6.466;2023-06-19T02:28:39;24.30;99.70
20376;DHT22;10347;51.828;6.466;2023-06-19T02:31:04;24.30;99.90
20376;DHT22;10347;51.828;6.466;2023-06-19T02:33:30;24.20;99.90
20376;DHT22;10347;51.828;6.466;2023-06-19T02:35:55;24.20;99.90
20376;DHT22;10347;51.828;6.466;2023-06-19T02:38:27;24.20;99.90
20376;DHT22;10347;51.828;6.466;2023-06-19T02:40:55;24.20;99.90
20376;DHT22;10347;51.828;6.466;2023-06-19T02:43:23;24.20;99.90
20376;DHT22;10347;51.828;6.466;2023-06-19T02:45:48;24.20;99.90
20376;DHT22;10347;51.828;6.466;2023-06-19T02:48:14;24.20;99.90
20376;DHT22;10347;51.828;6.466;2023-06-19T02:50:39;24.20;99.90
20376;DHT22;10347;51.828;6.466;2023-06-19T02:53:05;24.10;99.90
20376;DHT22;10347;51.828;6.466;2023-06-19T02:55:31;24.10;99.90
20376;DHT22;10347;51.828;6.466;2023-06-19T02:57:56;24.10;99.90
20376;DHT22;10347;51.828;6.466;2023-06-19T03:00:22;24.10;99.90
20376;DHT22;10347;51.828;6.466;2023-06-19T03:02:47;24.10;99.90
20376;DHT22;10347;51.828;6.466;2023-06-19T03:05:14;24.10;99.90
20376;DHT22;10347;51.828;6.466;2023-06-19T03:07:41;24.10;99.90
20376;DHT22;10347;51.828;6.466;2023-06-19T03:10:07;24.00;99.90
20376;DHT22;10347;51.828;6.466;2023-06-19T03:12:32;24.00;99.90
20376;DHT22;10347;51.828;6.466;2023-06-19T03:14:58;24.00;99.90
20376;DHT22;10347;51.828;6.466;2023-06-19T03:17:23;24.00;99.90
20376;DHT22;10347;51.828;6.466;2023-06-19T03:19:49;24.00;99.90
20376;DHT22;10347;51.828;6.466;2023-06-19T03:22:14;23.90;99.90
20376;DHT22;10347;51.828;6.466;2023-06-19T03:24:40;23.80;99.90
20376;DHT22;10347;51.828;6.466;2023-06-19T03:27:06;23.80;99.90
20376;DHT22;10347;51.828;6.466;2023-06-19T03:29:31;23.80;99.90
20376;DHT22;10347;51.828;6.466;2023-06-19T03:31:57;23.80;99.90
20376;DHT22;10347;51.828;6.466;2023-06-19T03:34:22;23.60;99.90
20376;DHT22;10347;51.828;6.466;2023-06-19T03:36:48;23.70;99.90
20376;DHT22;10347;51.828;6.466;2023-06-19T03:39:13;23.60;99.90
20376;DHT22;10347;51.828;6.466;2023-06-19T03:41:39;23.60;99.90
20376;DHT22;10347;51.828;6.466;2023-06-19T03:44:04;23.50;99.90
20376;DHT22;10347;51.828;6.466;2023-06-19T03:46:30;23.50;99.90
20376;DHT22;10347;51.828;6.466;2023-06-19T03:48:56;23.40;99.90
20376;DHT22;10347;51.828;6.466;2023-06-19T03:51:21;23.40;99.90
20376;DHT22;10347;51.828;6.466;2023-06-19T03:53:47;23.40;99.90
20376;DHT22;10347;51.828;6.466;2023-06-19T03:56:12;23.40;99.90
20376;DHT22;10347;51.828;6.466;2023-06-19T03:58:38;23.30;99.90
20376;DHT22;10347;51.828;6.466;2023-06-19T04:01:03;23.30;99.90
20376;DHT22;10347;51.828;6.466;2023-06-19T04:03:30;23.30;99.90
20376;DHT22;10347;51.828;6.466;2023-06-19T04:05:56;23.20;99.90
20376;DHT22;10347;51.828;6.466;2023-06-19T04:08:21;23.20;99.90
20376;DHT22;10347;51.828;6.466;2023-06-19T04:10:47;23.10;99.90
20376;DHT22;10347;51.828;6.466;2023-06-19T04:13:13;23.10;99.90
20376;DHT22;10347;51.828;6.466;2023-06-19T04:15:38;23.00;99.90
20376;DHT22;10347;51.828;6.466;2023-06-19T04:18:04;23.00;99.90
20376;DHT22;10347;51.828;6.466;2023-06-19T04:20:29;23.10;99.90
20376;DHT22;10347;51.828;6.466;2023-06-19T04:22:55;23.10;99.90
20376;DHT22;10347;51.828;6.466;2023-06-19T04:25:20;23.00;99.90
20376;DHT22;10347;51.828;6.466;2023-06-19T04:27:46;22.90;99.90
20376;DHT22;10347;51.828;6.466;2023-06-19T04:30:11;22.90;99.90
20376;DHT22;10347;51.828;6.466;2023-06-19T04:32:37;22.90;99.90
20376;DHT22;10347;51.828;6.466;2023-06-19T04:35:09;22.80;99.90
20376;DHT22;10347;51.828;6.466;2023-06-19T04:37:35;22.90;99.90
20376;DHT22;10347;51.828;6.466;2023-06-19T04:40:01;22.90;99.90
20376;DHT22;10347;51.828;6.466;2023-06-19T04:42:28;22.80;99.90
20376;DHT22;10347;51.828;6.466;2023-06-19T04:44:54;22.80;99.90
20376;DHT22;10347;51.828;6.466;2023-06-19T04:47:22;22.80;99.90
20376;DHT22;10347;51.828;6.466;2023-06-19T04:49:48;22.80;99.90
20376;DHT22;10347;51.828;6.466;2023-06-19T04:52:13;22.80;99.90
20376;DHT22;10347;51.828;6.466;2023-06-19T04:54:39;22.80;99.90
20376;DHT22;10347;51.828;6.466;2023-06-19T04:57:05;22.80;99.90
20376;DHT22;10347;51.828;6.466;2023-06-19T04:59:31;22.70;99.90
20376;DHT22;10347;51.828;6.466;2023-06-19T05:01:57;22.70;99.90
20376;DHT22;10347;51.828;6.466;2023-06-19T05:04:24;22.70;99.90
20376;DHT22;10347;51.828;6.466;2023-06-19T05:06:50;22.70;99.90
20376;DHT22;10347;51.828;6.466;2023-06-19T05:09:16;22.60;99.90
20376;DHT22;10347;51.828;6.466;2023-06-19T05:11:42;22.60;99.90
20376;DHT22;10347;51.828;6.466;2023-06-19T05:14:09;22.60;99.90
20376;DHT22;10347;51.828;6.466;2023-06-19T05:16:35;22.60;99.90
20376;DHT22;10347;51.828;6.466;2023-06-19T05:19:01;22.60;99.90
20376;DHT22;10347;51.828;6.466;2023-06-19T05:21:26;22.60;99.90
20376;DHT22;10347;51.828;6.466;2023-06-19T05:23:52;22.60;99.90
20376;DHT22;10347;51.828;6.466;2023-06-19T05:26:18;22.50;99.90
20376;DHT22;10347;51.828;6.466;2023-06-19T05:28:44;22.50;99.90
20376;DHT22;10347;51.828;6.466;2023-06-19T05:31:10;22.50;99.90
20376;DHT22;10347;51.828;6.466;2023-06-19T05:33:35;22.60;99.90
20376;DHT22;10347;51.828;6.466;2023-06-19T05:36:01;22.60;99.90
20376;DHT22;10347;51.828;6.466;2023-06-19T05:38:26;22.50;99.90
20376;DHT22;10347;51.828;6.466;2023-06-19T05:40:55;22.50;99.90
20376;DHT22;10347;51.828;6.466;2023-06-19T05:43:21;22.60;99.90
20376;DHT22;10347;51.828;6.466;2023-06-19T05:45:47;22.50;99.90
20376;DHT22;10347;51.828;6.466;2023-06-19T05:48:13;22.60;99.90
20376;DHT22;10347;51.828;6.466;2023-06-19T05:50:38;22.60;99.90
20376;DHT22;10347;51.828;6.466;2023-06-19T05:53:05;22.60;99.90
20376;DHT22;10347;51.828;6.466;2023-06-19T05:55:30;22.50;99.90
20376;DHT22;10347;51.828;6.466;2023-06-19T05:57:56;22.50;99.90
20376;DHT22;10347;51.828;6.466;2023-06-19T06:00:22;22.50;99.90
20376;DHT22;10347;51.828;6.466;2023-06-19T06:02:48;22.40;99.90
20376;DHT22;10347;51.828;6.466;2023-06-19T06:05:13;22.50;99.90
20376;DHT22;10347;51.828;6.466;2023-06-19T06:07:39;22.50;99.90
20376;DHT22;10347;51.828;6.466;2023-06-19T06:10:05;22.50;99.90
20376;DHT22;10347;51.828;6.466;2023-06-19T06:12:33;22.60;99.90
20376;DHT22;10347;51.828;6.466;2023-06-19T06:15:01;22.50;99.90
20376;DHT22;10347;51.828;6.466;2023-06-19T06:17:26;22.60;99.90
20376;DHT22;10347;51.828;6.466;2023-06-19T06:19:52;22.50;99.90
20376;DHT22;10347;51.828;6.466;2023-06-19T06:22:17;22.50;99.90
20376;DHT22;10347;51.828;6.466;2023-06-19T06:24:44;22.60;99.90
20376;DHT22;10347;51.828;6.466;2023-06-19T06:27:09;22.60;99.90
20376;DHT22;10347;51.828;6.466;2023-06-19T06:29:35;22.60;99.90
20376;DHT22;10347;51.828;6.466;2023-06-19T06:32:06;22.50;99.90
20376;DHT22;10347;51.828;6.466;2023-06-19T06:34:35;22.60;99.90
20376;DHT22;10347;51.828;6.466;2023-06-19T06:37:01;22.60;99.90
20376;DHT22;10347;51.828;6.466;2023-06-19T06:39:27;22.60;99.90
20376;DHT22;10347;51.828;6.466;2023-06-19T06:41:53;22.60;99.90
20376;DHT22;10347;51.828;6.466;2023-06-19T06:44:18;22.60;99.90
20376;DHT22;10347;51.828;6.466;2023-06-19T06:46:44;22.60;99.90
20376;DHT22;10347;51.828;6.466;2023-06-19T06:49:11;22.60;99.90
20376;DHT22;10347;51.828;6.466;2023-06-19T06:51:36;22.60;99.90
20376;DHT22;10347;51.828;6.466;2023-06-19T06:54:02;22.60;99.90
20376;DHT22;10347;51.828;6.466;2023-06-19T06:56:27;22.70;99.90
20376;DHT22;10347;51.828;6.466;2023-06-19T06:58:53;22.60;99.90
20376;DHT22;10347;51.828;6.466;2023-06-19T07:01:18;22.60;99.90
20376;DHT22;10347;51.828;6.466;2023-06-19T07:03:44;22.70;99.90
20376;DHT22;10347;51.828;6.466;2023-06-19T07:06:09;22.70;99.90
20376;DHT22;10347;51.828;6.466;2023-06-19T07:08:35;22.70;99.90
20376;DHT22;10347;51.828;6.466;2023-06-19T07:11:00;22.70;99.90
20376;DHT22;10347;51.828;6.466;2023-06-19T07:13:26;22.80;99.90
20376;DHT22;10347;51.828;6.466;2023-06-19T07:15:52;22.80;99.90
20376;DHT22;10347;51.828;6.466;2023-06-19T07:18:17;22.80;99.90
20376;DHT22;10347;51.828;6.466;2023-06-19T07:20:43;22.80;99.90
20376;DHT22;10347;51.828;6.466;2023-06-19T07:23:10;22.90;99.90
20376;DHT22;10347;51.828;6.466;2023-06-19T07:25:35;22.90;99.90
20376;DHT22;10347;51.828;6.466;2023-06-19T07:28:01;22.90;99.90
20376;DHT22;10347;51.828;6.466;2023-06-19T07:30:27;22.90;99.90
20376;DHT22;10347;51.828;6.466;2023-06-19T07:32:52;23.00;99.90
20376;DHT22;10347;51.828;6.466;2023-06-19T07:35:18;23.00;99.90
20376;DHT22;10347;51.828;6.466;2023-06-19T07:37:44;23.00;99.90
20376;DHT22;10347;51.828;6.466;2023-06-19T07:40:10;23.00;99.90
20376;DHT22;10347;51.828;6.466;2023-06-19T07:42:36;23.00;99.90
20376;DHT22;10347;51.828;6.466;2023-06-19T07:45:02;23.00;99.90
20376;DHT22;10347;51.828;6.466;2023-06-19T07:47:28;23.10;99.90
20376;DHT22;10347;51.828;6.466;2023-06-19T07:49:54;23.10;99.90
20376;DHT22;10347;51.828;6.466;2023-06-19T07:52:19;23.10;99.90
20376;DHT22;10347;51.828;6.466;2023-06-19T07:54:56;23.10;99.90
20376;DHT22;10347;51.828;6.466;2023-06-19T07:57:23;23.20;99.90
20376;DHT22;10347;51.828;6.466;2023-06-19T07:59:50;23.20;99.90
20376;DHT22;10347;51.828;6.466;2023-06-19T08:02:16;23.20;99.90
20376;DHT22;10347;51.828;6.466;2023-06-19T08:04:41;23.20;99.90
20376;DHT22;10347;51.828;6.466;2023-06-19T08:07:07;23.20;99.90
20376;DHT22;10347;51.828;6.466;2023-06-19T08:09:33;23.20;99.90
20376;DHT22;10347;51.828;6.466;2023-06-19T08:11:59;23.20;99.90
20376;DHT22;10347;51.828;6.466;2023-06-19T08:14:24;23.20;99.90
20376;DHT22;10347;51.828;6.466;2023-06-19T08:16:50;23.30;99.90
20376;DHT22;10347;51.828;6.466;2023-06-19T08:19:15;23.30;99.90
20376;DHT22;10347;51.828;6.466;2023-06-19T08:21:41;23.30;99.90
20376;DHT22;10347;51.828;6.466;2023-06-19T08:24:06;23.30;99.90
20376;DHT22;10347;51.828;6.466;2023-06-19T08:26:32;23.30;99.90
20376;DHT22;10347;51.828;6.466;2023-06-19T08:28:58;23.30;99.90
20376;DHT22;10347;51.828;6.466;2023-06-19T08:31:23;23.30;99.90
20376;DHT22;10347;51.828;6.466;2023-06-19T08:33:54;23.40;99.90
20376;DHT22;10347;51.828;6.466;2023-06-19T08:36:20;23.40;99.90
20376;DHT22;10347;51.828;6.466;2023-06-19T08:38:45;23.40;99.90
20376;DHT22;10347;51.828;6.466;2023-06-19T08:41:15;23.30;99.90
20376;DHT22;10347;51.828;6.466;2023-06-19T08:43:41;23.40;99.90
20376;DHT22;10347;51.828;6.466;2023-06-19T08:46:15;23.50;99.90
20376;DHT22;10347;51.828;6.466;2023-06-19T08:48:41;23.50;99.90
20376;DHT22;10347;51.828;6.466;2023-06-19T08:51:07;23.50;99.90
20376;DHT22;10347;51.828;6.466;2023-06-19T08:53:36;23.60;99.90
20376;DHT22;10347;51.828;6.466;2023-06-19T08:56:03;23.60;99.90
20376;DHT22;10347;51.828;6.466;2023-06-19T08:58:28;23.70;99.90
20376;DHT22;10347;51.828;6.466;2023-06-19T09:00:54;23.80;99.90
20376;DHT22;10347;51.828;6.466;2023-06-19T09:03:20;23.80;99.90
20376;DHT22;10347;51.828;6.466;2023-06-19T09:05:49;23.90;99.90
20376;DHT22;10347;51.828;6.466;2023-06-19T09:08:16;24.00;99.90
20376;DHT22;10347;51.828;6.466;2023-06-19T09:10:43;24.10;99.90
20376;DHT22;10347;51.828;6.466;2023-06-19T09:13:08;24.20;99.90
20376;DHT22;10347;51.828;6.466;2023-06-19T09:15:36;24.20;99.90
20376;DHT22;10347;51.828;6.466;2023-06-19T09:18:09;24.20;99.90
20376;DHT22;10347;51.828;6.466;2023-06-19T09:20:38;24.30;99.90
20376;DHT22;10347;51.828;6.466;2023-06-19T09:23:05;24.30;99.90
20376;DHT22;10347;51.828;6.466;2023-06-19T09:25:31;24.40;99.90
20376;DHT22;10347;51.828;6.466;2023-06-19T09:27:57;24.40;99.90
20376;DHT22;10347;51.828;6.466;2023-06-19T09:30:22;24.40;99.90
20376;DHT22;10347;51.828;6.466;2023-06-19T09:32:48;24.50;99.90
20376;DHT22;10347;51.828;6.466;2023-06-19T09:35:14;24.50;99.90
20376;DHT22;10347;51.828;6.466;2023-06-19T09:37:40;24.60;99.90
20376;DHT22;10347;51.828;6.466;2023-06-19T09:40:07;24.70;99.90
20376;DHT22;10347;51.828;6.466;2023-06-19T09:42:40;24.80;99.90
20376;DHT22;10347;51.828;6.466;2023-06-19T09:45:08;24.80;99.90
20376;DHT22;10347;51.828;6.466;2023-06-19T09:47:46;24.80;99.90
20376;DHT22;10347;51.828;6.466;2023-06-19T09:50:14;24.80;99.90
20376;DHT22;10347;51.828;6.466;2023-06-19T09:52:41;24.80;99.90
20376;DHT22;10347;51.828;6.466;2023-06-19T09:55:08;24.90;99.90
20376;DHT22;10347;51.828;6.466;2023-06-19T09:57:34;25.00;99.90
20376;DHT22;10347;51.828;6.466;2023-06-19T10:00:03;25.00;99.90
20376;DHT22;10347;51.828;6.466;2023-06-19T10:02:45;25.00;99.90
20376;DHT22;10347;51.828;6.466;2023-06-19T10:05:11;25.10;99.90
20376;DHT22;10347;51.828;6.466;2023-06-19T10:07:41;25.20;99.90
20376;DHT22;10347;51.828;6.466;2023-06-19T10:10:10;25.20;99.90
20376;DHT22;10347;51.828;6.466;2023-06-19T10:12:41;25.20;99.90
20376;DHT22;10347;51.828;6.466;2023-06-19T10:15:21;25.20;99.90
20376;DHT22;10347;51.828;6.466;2023-06-19T10:17:52;25.30;99.90
20376;DHT22;10347;51.828;6.466;2023-06-19T10:23:05;25.40;99.90
20376;DHT22;10347;51.828;6.466;2023-06-19T10:25:35;25.50;99.90
20376;DHT22;10347;51.828;6.466;2023-06-19T10:28:02;25.60;99.90
20376;DHT22;10347;51.828;6.466;2023-06-19T10:30:31;25.60;99.90
20376;DHT22;10347;51.828;6.466;2023-06-19T10:32:57;25.70;99.90
20376;DHT22;10347;51.828;6.466;2023-06-19T10:35:23;25.70;99.90
20376;DHT22;10347;51.828;6.466;2023-06-19T10:37:50;25.80;99.90
20376;DHT22;10347;51.828;6.466;2023-06-19T10:40:16;25.80;99.90
20376;DHT22;10347;51.828;6.466;2023-06-19T10:42:42;25.90;99.90
20376;DHT22;10347;51.828;6.466;2023-06-19T10:45:11;25.90;99.90
20376;DHT22;10347;51.828;6.466;2023-06-19T10:47:41;25.90;99.90
20376;DHT22;10347;51.828;6.466;2023-06-19T10:50:13;25.90;99.90
20376;DHT22;10347;51.828;6.466;2023-06-19T10:52:40;25.90;99.90
20376;DHT22;10347;51.828;6.466;2023-06-19T10:55:07;26.00;99.90
20376;DHT22;10347;51.828;6.466;2023-06-19T10:57:33;26.00;99.90
20376;DHT22;10347;51.828;6.466;2023-06-19T10:59:59;26.00;99.90
20376;DHT22;10347;51.828;6.466;2023-06-19T11:02:25;26.10;99.90
20376;DHT22;10347;51.828;6.466;2023-06-19T11:04:54;26.20;99.90
20376;DHT22;10347;51.828;6.466;2023-06-19T11:07:21;26.20;99.90
20376;DHT22;10347;51.828;6.466;2023-06-19T11:09:48;26.30;99.90
20376;DHT22;10347;51.828;6.466;2023-06-19T11:12:19;26.30;99.90
20376;DHT22;10347;51.828;6.466;2023-06-19T11:14:45;26.30;99.90
20376;DHT22;10347;51.828;6.466;2023-06-19T11:17:10;26.30;99.90
20376;DHT22;10347;51.828;6.466;2023-06-19T11:19:36;26.30;99.90
20376;DHT22;10347;51.828;6.466;2023-06-19T11:22:03;26.30;99.90
20376;DHT22;10347;51.828;6.466;2023-06-19T11:24:29;26.40;99.90
20376;DHT22;10347;51.828;6.466;2023-06-19T11:26:56;26.40;99.90
20376;DHT22;10347;51.828;6.466;2023-06-19T11:29:25;26.40;99.90
20376;DHT22;10347;51.828;6.466;2023-06-19T11:32:05;26.40;99.90
20376;DHT22;10347;51.828;6.466;2023-06-19T11:34:35;26.40;99.90
20376;DHT22;10347;51.828;6.466;2023-06-19T11:37:11;26.50;99.90
20376;DHT22;10347;51.828;6.466;2023-06-19T11:39:36;26.60;99.90
20376;DHT22;10347;51.828;6.466;2023-06-19T11:42:02;26.60;99.90
20376;DHT22;10347;51.828;6.466;2023-06-19T11:44:28;26.60;99.90
20376;DHT22;10347;51.828;6.466;2023-06-19T11:46:57;26.70;99.90
20376;DHT22;10347;51.828;6.466;2023-06-19T11:49:24;26.70;99.90
20376;DHT22;10347;51.828;6.466;2023-06-19T11:51:50;26.80;99.90
20376;DHT22;10347;51.828;6.466;2023-06-19T11:54:16;26.80;99.90
20376;DHT22;10347;51.828;6.466;2023-06-19T11:56:43;26.90;99.90
20376;DHT22;10347;51.828;6.466;2023-06-19T11:59:09;26.90;99.90
20376;DHT22;10347;51.828;6.466;2023-06-19T12:01:36;26.90;99.90
20376;DHT22;10347;51.828;6.466;2023-06-19T12:04:02;26.90;99.90
20376;DHT22;10347;51.828;6.466;2023-06-19T12:06:28;27.00;99.90
20376;DHT22;10347;51.828;6.466;2023-06-19T12:08:54;27.00;99.90
20376;DHT22;10347;51.828;6.466;2023-06-19T12:11:20;27.10;99.90
20376;DHT22;10347;51.828;6.466;2023-06-19T12:13:45;27.10;99.90
20376;DHT22;10347;51.828;6.466;2023-06-19T12:16:11;27.10;99.90
20376;DHT22;10347;51.828;6.466;2023-06-19T12:18:37;27.10;99.90
20376;DHT22;10347;51.828;6.466;2023-06-19T12:21:03;27.20;99.90
20376;DHT22;10347;51.828;6.466;2023-06-19T12:23:29;27.20;99.90
20376;DHT22;10347;51.828;6.466;2023-06-19T12:25:54;27.20;99.90
20376;DHT22;10347;51.828;6.466;2023-06-19T12:28:20;27.20;99.80
20376;DHT22;10347;51.828;6.466;2023-06-19T12:30:46;27.20;99.10
20376;DHT22;10347;51.828;6.466;2023-06-19T12:33:13;27.30;99.30
20376;DHT22;10347;51.828;6.466;2023-06-19T12:35:40;27.30;99.70
20376;DHT22;10347;51.828;6.466;2023-06-19T12:38:06;27.40;99.70
20376;DHT22;10347;51.828;6.466;2023-06-19T12:40:32;27.50;99.50
20376;DHT22;10347;51.828;6.466;2023-06-19T12:42:57;27.50;99.60
20376;DHT22;10347;51.828;6.466;2023-06-19T12:45:23;27.60;99.10
20376;DHT22;10347;51.828;6.466;2023-06-19T12:47:49;27.60;98.00
20376;DHT22;10347;51.828;6.466;2023-06-19T12:50:14;27.70;97.90
20376;DHT22;10347;51.828;6.466;2023-06-19T12:52:40;27.70;97.60
20376;DHT22;10347;51.828;6.466;2023-06-19T12:55:05;27.80;97.40
20376;DHT22;10347;51.828;6.466;2023-06-19T12:57:31;27.80;97.00
20376;DHT22;10347;51.828;6.466;2023-06-19T12:59:56;27.80;97.20
20376;DHT22;10347;51.828;6.466;2023-06-19T13:02:22;27.90;97.60
20376;DHT22;10347;51.828;6.466;2023-06-19T13:04:48;27.90;97.30
20376;DHT22;10347;51.828;6.466;2023-06-19T13:07:13;28.00;97.50
20376;DHT22;10347;51.828;6.466;2023-06-19T13:09:39;28.00;96.50
20376;DHT22;10347;51.828;6.466;2023-06-19T13:12:05;28.10;96.40
20376;DHT22;10347;51.828;6.466;2023-06-19T13:14:30;28.10;96.50
20376;DHT22;10347;51.828;6.466;2023-06-19T13:16:57;28.20;96.70
20376;DHT22;10347;51.828;6.466;2023-06-19T13:19:23;28.30;94.90
20376;DHT22;10347;51.828;6.466;2023-06-19T13:21:48;28.20;94.90
20376;DHT22;10347;51.828;6.466;2023-06-19T13:24:14;28.30;94.30
20376;DHT22;10347;51.828;6.466;2023-06-19T13:26:40;28.30;94.00
20376;DHT22;10347;51.828;6.466;2023-06-19T13:29:05;28.30;93.90
20376;DHT22;10347;51.828;6.466;2023-06-19T13:31:31;28.30;93.00
20376;DHT22;10347;51.828;6.466;2023-06-19T13:33:56;28.30;93.40
20376;DHT22;10347;51.828;6.466;2023-06-19T13:36:22;28.40;93.10
20376;DHT22;10347;51.828;6.466;2023-06-19T13:38:49;28.40;93.20
20376;DHT22;10347;51.828;6.466;2023-06-19T13:41:15;28.50;93.40
20376;DHT22;10347;51.828;6.466;2023-06-19T13:43:40;28.50;93.60
20376;DHT22;10347;51.828;6.466;2023-06-19T13:46:06;28.60;92.50
20376;DHT22;10347;51.828;6.466;2023-06-19T13:48:32;28.60;92.40
20376;DHT22;10347;51.828;6.466;2023-06-19T13:50:58;28.60;91.60
20376;DHT22;10347;51.828;6.466;2023-06-19T13:53:25;28.70;91.40
20376;DHT22;10347;51.828;6.466;2023-06-19T13:55:50;28.70;90.80
20376;DHT22;10347;51.828;6.466;2023-06-19T13:58:16;28.70;90.70
20376;DHT22;10347;51.828;6.466;2023-06-19T14:00:41;28.70;90.60
20376;DHT22;10347;51.828;6.466;2023-06-19T14:03:07;28.70;90.40
20376;DHT22;10347;51.828;6.466;2023-06-19T14:05:33;28.80;89.80
20376;DHT22;10347;51.828;6.466;2023-06-19T14:07:59;28.80;89.40
20376;DHT22;10347;51.828;6.466;2023-06-19T14:10:24;28.80;88.60
20376;DHT22;10347;51.828;6.466;2023-06-19T14:12:50;28.90;88.90
20376;DHT22;10347;51.828;6.466;2023-06-19T14:15:16;28.90;86.70
20376;DHT22;10347;51.828;6.466;2023-06-19T14:17:41;28.90;84.70
20376;DHT22;10347;51.828;6.466;2023-06-19T14:20:10;28.90;84.70
20376;DHT22;10347;51.828;6.466;2023-06-19T14:22:35;28.90;82.30
20376;DHT22;10347;51.828;6.466;2023-06-19T14:25:01;29.00;82.90
20376;DHT22;10347;51.828;6.466;2023-06-19T14:27:27;28.90;82.80
20376;DHT22;10347;51.828;6.466;2023-06-19T14:29:54;28.90;83.00
20376;DHT22;10347;51.828;6.466;2023-06-19T14:32:20;28.90;84.50
20376;DHT22;10347;51.828;6.466;2023-06-19T14:34:46;29.00;85.30
20376;DHT22;10347;51.828;6.466;2023-06-19T14:37:12;29.00;85.30
20376;DHT22;10347;51.828;6.466;2023-06-19T14:39:37;29.00;84.90
20376;DHT22;10347;51.828;6.466;2023-06-19T14:42:03;29.10;85.80
20376;DHT22;10347;51.828;6.466;2023-06-19T14:44:28;29.10;85.40
20376;DHT22;10347;51.828;6.466;2023-06-19T14:46:54;29.20;85.20
20376;DHT22;10347;51.828;6.466;2023-06-19T14:49:20;29.30;83.40
20376;DHT22;10347;51.828;6.466;2023-06-19T14:51:46;29.30;82.20
20376;DHT22;10347;51.828;6.466;2023-06-19T14:54:11;29.30;81.00
20376;DHT22;10347;51.828;6.466;2023-06-19T14:56:38;29.30;80.90
20376;DHT22;10347;51.828;6.466;2023-06-19T14:59:04;29.30;80.20
20376;DHT22;10347;51.828;6.466;2023-06-19T15:01:29;29.40;79.50
20376;DHT22;10347;51.828;6.466;2023-06-19T15:03:55;29.30;79.50
20376;DHT22;10347;51.828;6.466;2023-06-19T15:06:20;29.40;80.10
20376;DHT22;10347;51.828;6.466;2023-06-19T15:08:46;29.40;80.70
20376;DHT22;10347;51.828;6.466;2023-06-19T15:11:11;29.50;79.70
20376;DHT22;10347;51.828;6.466;2023-06-19T15:13:37;29.50;80.00
20376;DHT22;10347;51.828;6.466;2023-06-19T15:16:02;29.50;80.00
20376;DHT22;10347;51.828;6.466;2023-06-19T15:18:30;29.50;80.20
20376;DHT22;10347;51.828;6.466;2023-06-19T15:20:55;29.60;79.90
20376;DHT22;10347;51.828;6.466;2023-06-19T15:23:21;29.60;77.80
20376;DHT22;10347;51.828;6.466;2023-06-19T15:25:46;29.60;77.60
20376;DHT22;10347;51.828;6.466;2023-06-19T15:28:14;29.70;77.30